Current Weather Conditions from Arkansas, Oklahoma, Missouri & Kansas

As well as selected U.S. cities associated with XNA Flights


KVBT - Bentonville Arkansas, Airport
Updated: Fri, May-Fri-2018 2:56am
Few Clouds
Few Clouds
 Wind from S
Wind: S 3 mph , 6 km/h
Temperature: 68°F , 20°C
Dew Point: 63°F , 17°C
Humidity: 83%
Barometer: 30.04 inHg , 1017.3 hPa
Clouds: Few Clouds
Visibility: 10 miles , 16 km
Cloud details: Few Clouds 11000 ft
2018/05/25 07:56 KVBT 250756Z AUTO 19003KT 10SM FEW110 20/17 A3004 RMK AO2 SLP165 T02000172
KROG - Rogers Arkansas, Airport
Updated: Fri, May-Fri-2018 2:58am
Mostly cloudy
Mostly cloudy
 Wind from SE
Wind: SE 6 mph , 9 km/h
Temperature: 66°F , 19°C
Dew Point: 64°F , 18°C
Humidity: 94%
Barometer: 30.04 inHg , 1017.3 hPa
Clouds: Mostly cloudy
Visibility: 7 miles , 11 km
Cloud details: Mostly cloudy 11000 ft
2018/05/25 07:58 KROG 250758Z AUTO 14005KT 7SM BKN110 19/18 A3004 RMK AO2 SLP158 T01940178
KXNA - Northwest Arkansas Regional Airport
Updated: Fri, May-Fri-2018 2:53am
Few Clouds
Few Clouds
 Wind from S
Wind: S 5 mph , 7 km/h
Temperature: 66°F , 19°C
Dew Point: 63°F , 17°C
Humidity: 88%
Barometer: 30.03 inHg , 1016.9 hPa
Clouds: Few Clouds
Visibility: 10 miles , 16 km
Cloud details: Few Clouds 11000 ft
2018/05/25 07:53 KXNA 250753Z AUTO 19004KT 10SM FEW110 19/17 A3003 RMK AO2 SLP153 T01890167
 
KSLG - Siloam Spring Arkansas, Airport
Updated: Fri, May-Fri-2018 2:56am
Clear
Clear
 Wind from ESE
Wind: ESE 5 mph , 7 km/h
Temperature: 66°F , 19°C
Dew Point: 64°F , 18°C
Humidity: 94%
Barometer: 30.02 inHg , 1016.6 hPa
Clouds: Clear
Visibility: 10 miles , 16 km
2018/05/25 07:56 KSLG 250756Z AUTO 12004KT 10SM CLR 19/18 A3002 RMK AO2 SLP157 T01890178
KASG - Springdale, Arkansas, Airport
Updated: Thu, May-Thu-2018 8:48pm
NOT Current
Partly cloudy
Partly cloudy
 Wind from SE
Wind: SE 6 mph , 9 km/h
Temperature: 72°F , 22°C
Dew Point: 68°F , 20°C
Humidity: 88%
Barometer: 30.07 inHg , 1018.3 hPa
Clouds: Partly cloudy
Visibility: 10 miles , 16 km
Cloud details: Partly cloudy 15000 ft
2018/05/25 01:48 KASG 250148Z 13005KT 10SM SCT150 22/20 A3007
KFYV - Fayetteville Arkansas, Airport
Updated: Fri, May-Fri-2018 2:53am
Mostly cloudy
Mostly cloudy
 Wind from calm
Wind: Calm
Temperature: 63°F , 17°C
Dew Point: 63°F , 17°C
Humidity: 100%
Barometer: 30.03 inHg , 1016.9 hPa
Clouds: Mostly cloudy
Visibility: 7 miles , 11 km
Cloud details: Mostly cloudy 11000 ft
2018/05/25 07:53 KFYV 250753Z AUTO 00000KT 7SM BKN110 17/17 A3003 RMK AO2 SLP155 T01720167
 
KHRO - Harrison, Arkansas
Updated: Fri, May-Fri-2018 2:53am
Clear
Clear
 Wind from SE
Wind: SE 3 mph , 6 km/h
Temperature: 64°F , 18°C
Dew Point: 64°F , 18°C
Humidity: 100%
Barometer: 30.03 inHg , 1016.9 hPa
Clouds: Clear
Visibility: 8 miles , 13 km
2018/05/25 07:53 KHRO 250753Z AUTO 13003KT 8SM CLR 18/18 A3003 RMK AO2 SLP156 T01830183
KFLP - Flippin, Arkansas
Updated: Fri, May-Fri-2018 2:56am
Clear
Clear
 Wind from calm
Wind: Calm
Temperature: 64°F , 18°C
Dew Point: 63°F , 17°C
Humidity: 94%
Barometer: 30.01 inHg , 1016.3 hPa
Clouds: Clear
Visibility: 8 miles , 13 km
2018/05/25 07:56 KFLP 250756Z AUTO 00000KT 8SM CLR 18/17 A3001 RMK AO2 SLP156 T01780172 PNO $
KBPK - Mountain Home, Arkansas
Updated: Fri, May-Fri-2018 2:53am
Clear
Clear
 Wind from calm
Wind: Calm
Temperature: 63°F , 17°C
Dew Point: 63°F , 17°C
Humidity: 100%
Barometer: 30.00 inHg , 1015.9 hPa
Clouds: Clear
Visibility: 10 miles , 16 km
2018/05/25 07:53 KBPK 250753Z AUTO 00000KT 10SM CLR 17/17 A3000 RMK AO2 SLP150 T01720172
 
KCCA - Clinton, Arkansas
Updated: Fri, May-Fri-2018 3:35am
Clear
Clear
 Wind from calm
Wind: Calm
Temperature: 66°F , 19°C
Dew Point: 66°F , 19°C
Humidity: 100%
Barometer: 30.00 inHg , 1015.9 hPa
Clouds: Clear
Visibility: 10 miles , 16 km
2018/05/25 08:35 KCCA 250835Z AUTO 00000KT 10SM CLR 19/19 A3000 RMK AO2
KRUE - Russellville, Arkansas
Updated: Fri, May-Fri-2018 3:17am
Mist, Clear
Mist, Clear
 Wind from calm
Wind: Calm
Temperature: 70°F , 21°C
Dew Point: 70°F , 21°C
Humidity: 100%
Barometer: 29.98 inHg , 1015.2 hPa
Summary: Mist
Clouds: Clear
Visibility: 4 miles , 6 km
2018/05/25 08:17 KRUE 250817Z AUTO 00000KT 4SM BR CLR 21/21 A2998 RMK AO2 T02110211
KBVX - Batesville, Arkansa
Updated: Fri, May-Fri-2018 2:56am
Clear
Clear
 Wind from calm
Wind: Calm
Temperature: 66°F , 19°C
Dew Point: 66°F , 19°C
Humidity: 100%
Barometer: 30.01 inHg , 1016.3 hPa
Clouds: Clear
Visibility: 9 miles , 14 km
2018/05/25 07:56 KBVX 250756Z AUTO 00000KT 9SM CLR 19/19 A3001 RMK AO2 SLP157 T01940189
 
KBYH - Blytheville, Arkansas
Updated: Thu, May-Thu-2018 4:50pm
NOT Current
Mostly cloudy
Mostly cloudy
 Wind from ESE
Wind: ESE 3 mph , 6 km/h
Temperature: 88°F , 31°C
Heat Index: 89°F , 32°C
Dew Point: 63°F , 17°C
Humidity: 43%
Barometer: 30.02 inHg , 1016.6 hPa
Clouds: Mostly cloudy
Visibility: 10 miles , 16 km
Cloud details: Mostly cloudy 10000 ft
Mostly cloudy 15000 ft
2018/05/24 21:50 KBYH 242150Z 11003KT 10SM BKN100 BKN150 31/17 A3002 RMK LAST
KM19 - Newport, Arkansas
Updated: Fri, May-Fri-2018 2:56am
Clear
Clear
 Wind from S
Wind: S 3 mph , 6 km/h
Temperature: 72°F , 22°C
Dew Point: 72°F , 22°C
Humidity: 100%
Barometer: 29.99 inHg , 1015.6 hPa
Clouds: Clear
Visibility: 10 miles , 16 km
2018/05/25 07:56 KM19 250756Z AUTO 19003KT 10SM CLR 22/22 A2999 RMK AO2 SLP158 T02220217
KSRC - Searcy, Arkansas
Updated: Fri, May-Fri-2018 2:56am
Clear
Clear
 Wind from calm
Wind: Calm
Temperature: 70°F , 21°C
Dew Point: 70°F , 21°C
Humidity: 100%
Barometer: 29.99 inHg , 1015.6 hPa
Clouds: Clear
Visibility: 7 miles , 11 km
2018/05/25 07:56 KSRC 250756Z AUTO 00000KT 7SM CLR 21/21 A2999 RMK AO2 SLP161 T02060206
 
KARG - Walnut Ridge, Arkansas
Updated: Fri, May-Fri-2018 2:56am

 Wind from calm
Wind: Calm
Temperature: 72°F , 22°C
Dew Point: 70°F , 21°C
Humidity: 94%
Barometer: 29.99 inHg , 1015.6 hPa
Visibility: 10 miles , 16 km
2018/05/25 07:56 KARG 250756Z AUTO 00000KT 10SM 22/21 A2999 RMK AO2 SLP155 T02220211 $
KJBR - Jonesboro, Arkansas
Updated: Fri, May-Fri-2018 2:53am
Clear
Clear
 Wind from SE
Wind: SE 6 mph , 9 km/h
Temperature: 73°F , 23°C
Dew Point: 73°F , 23°C
Humidity: 100%
Barometer: 29.99 inHg , 1015.6 hPa
Clouds: Clear
Visibility: 10 miles , 16 km
2018/05/25 07:53 KJBR 250753Z AUTO 14005KT 10SM CLR 23/23 A2999 RMK AO2 SLP152 T02280228
K4M9 - Corning, Arkansas
Updated: Fri, May-Fri-2018 3:35am
Clear
Clear
 Wind from calm
Wind: Calm
Temperature: 72°F , 22°C
Dew Point: 72°F , 22°C
Humidity: 100%
Barometer: 29.99 inHg , 1015.6 hPa
Clouds: Clear
Visibility: 10 miles , 16 km
2018/05/25 08:35 K4M9 250835Z AUTO 00000KT 10SM CLR 22/22 A2999 RMK AO2 PWINO
 
KLRF - Little Rock Afb, Arkansas
Updated: Fri, May-Fri-2018 2:56am
Clear
Clear
 Wind from NE
Wind: NE 3 mph , 6 km/h
Temperature: 72°F , 22°C
Dew Point: 72°F , 22°C
Humidity: 100%
Barometer: 29.98 inHg , 1015.2 hPa
Clouds: Clear
Visibility: 10 miles , 16 km
2018/05/25 07:56 KLRF 250756Z AUTO 05003KT 10SM CLR 22/22 A2998 RMK AO2 SLP152 T02170217
KLIT - Little Rock, Arkansas
Updated: Fri, May-Fri-2018 2:53am
Partly cloudy
Partly cloudy
 Wind from SSE
Wind: SSE 3 mph , 6 km/h
Temperature: 70°F , 21°C
Dew Point: 70°F , 21°C
Humidity: 100%
Barometer: 29.98 inHg , 1015.2 hPa
Clouds: Partly cloudy
Visibility: 10 miles , 16 km
Cloud details: Few Clouds 4500 ft
Partly cloudy 25000 ft
2018/05/25 07:53 KLIT 250753Z 15003KT 10SM FEW045 SCT250 21/21 A2998 RMK AO2 SLP153 T02110206
KSGT - Stuttgart, Arkansas
Updated: Fri, May-Fri-2018 2:56am
Clear
Clear
 Wind from S
Wind: S 6 mph , 9 km/h
Temperature: 73°F , 23°C
Dew Point: 70°F , 21°C
Humidity: 89%
Barometer: 29.99 inHg , 1015.6 hPa
Clouds: Clear
Visibility: 10 miles , 16 km
2018/05/25 07:56 KSGT 250756Z AUTO 19005KT 10SM CLR 23/21 A2999 RMK AO2 SLP156 T02330211
 
KAWM - West Memphis, Arkansas
Updated: Fri, May-Fri-2018 2:53am
Mist, Clear
Mist, Clear
 Wind from calm
Wind: Calm
Temperature: 72°F , 22°C
Dew Point: 72°F , 22°C
Humidity: 100%
Barometer: 29.99 inHg , 1015.6 hPa
Summary: Mist
Clouds: Clear
Visibility: 4 miles , 6 km
2018/05/25 07:53 KAWM 250753Z AUTO 00000KT 4SM BR CLR 22/22 A2999 RMK AO2 SLP151 T02220222
KFSM - Fort Smith, Arkansas
Updated: Fri, May-Fri-2018 2:53am
Clear
Clear
 Wind from ENE
Wind: ENE 6 mph , 9 km/h
Temperature: 70°F , 21°C
Dew Point: 70°F , 21°C
Humidity: 100%
Barometer: 29.99 inHg , 1015.6 hPa
Clouds: Clear
Visibility: 9 miles , 14 km
2018/05/25 07:53 KFSM 250753Z AUTO 06005KT 9SM CLR 21/21 A2999 RMK AO2 SLP152 T02110206
KMWT - Mount Ida, Arkansas
Updated: Fri, May-Fri-2018 3:04am
Mist, Few clouds
Mist, Few clouds
 Wind from calm
Wind: Calm
Temperature: 68°F , 20°C
Dew Point: 68°F , 20°C
Humidity: 100%
Barometer: 29.99 inHg , 1015.6 hPa
Summary: Mist
Clouds: Few Clouds
Visibility: 4 miles , 6 km
Cloud details: Few Clouds 200 ft
2018/05/25 08:04 KMWT 250804Z AUTO 00000KT 4SM BR FEW002 20/20 A2999 RMK AO2 T02000200
 
KMEZ - Mena, Arkansas
Updated: Fri, May-Fri-2018 3:35am
Clear
Clear
 Wind from calm
Wind: Calm
Barometer: 30.02 inHg , 1016.6 hPa
Clouds: Clear
Visibility: 7 miles , 11 km
2018/05/25 08:35 KMEZ 250835Z AUTO 00000KT 7SM CLR A3002 RMK AO2
KHOT - Hot Springs, Arkansas
Updated: Fri, May-Fri-2018 2:53am
Clear
Clear
 Wind from calm
Wind: Calm
Temperature: 73°F , 23°C
Dew Point: 72°F , 22°C
Humidity: 94%
Barometer: 30.00 inHg , 1015.9 hPa
Clouds: Clear
Visibility: 10 miles , 16 km
2018/05/25 07:53 KHOT 250753Z AUTO 00000KT 10SM CLR 23/22 A3000 RMK AO2 SLP152 T02330222
KADF - Arkadelphia, Arkansas
Updated: Fri, May-Fri-2018 3:09am
Mist, Clear
Mist, Clear
 Wind from calm
Wind: Calm
Temperature: 72°F , 22°C
Dew Point: 70°F , 21°C
Humidity: 94%
Barometer: 29.99 inHg , 1015.6 hPa
Summary: Mist
Clouds: Clear
Visibility: 2 1/2 miles , 2 km
2018/05/25 08:09 KADF 250809Z AUTO 00000KT 2 1/2SM BR CLR 22/21 A2999 RMK AO2 PWINO TSNO $
 
KSGT - Stuttgart, Arkansas
Updated: Fri, May-Fri-2018 2:56am
Clear
Clear
 Wind from S
Wind: S 6 mph , 9 km/h
Temperature: 73°F , 23°C
Dew Point: 70°F , 21°C
Humidity: 89%
Barometer: 29.99 inHg , 1015.6 hPa
Clouds: Clear
Visibility: 10 miles , 16 km
2018/05/25 07:56 KSGT 250756Z AUTO 19005KT 10SM CLR 23/21 A2999 RMK AO2 SLP156 T02330211
KPBF - Pine Bluff, Arkansas
Updated: Fri, May-Fri-2018 2:53am
Clear
Clear
 Wind from calm
Wind: Calm
Temperature: 73°F , 23°C
Dew Point: 70°F , 21°C
Humidity: 89%
Barometer: 29.99 inHg , 1015.6 hPa
Clouds: Clear
Visibility: 10 miles , 16 km
2018/05/25 07:53 KPBF 250753Z AUTO 00000KT 10SM CLR 23/21 A2999 RMK AO2 SLP153 T02280206
KSRC - Searcy, Arkansas
Updated: Fri, May-Fri-2018 2:56am
Clear
Clear
 Wind from calm
Wind: Calm
Temperature: 70°F , 21°C
Dew Point: 70°F , 21°C
Humidity: 100%
Barometer: 29.99 inHg , 1015.6 hPa
Clouds: Clear
Visibility: 7 miles , 11 km
2018/05/25 07:56 KSRC 250756Z AUTO 00000KT 7SM CLR 21/21 A2999 RMK AO2 SLP161 T02060206
 
KRUE - Russellville, Arkansas
Updated: Fri, May-Fri-2018 3:17am
Mist, Clear
Mist, Clear
 Wind from calm
Wind: Calm
Temperature: 70°F , 21°C
Dew Point: 70°F , 21°C
Humidity: 100%
Barometer: 29.98 inHg , 1015.2 hPa
Summary: Mist
Clouds: Clear
Visibility: 4 miles , 6 km
2018/05/25 08:17 KRUE 250817Z AUTO 00000KT 4SM BR CLR 21/21 A2998 RMK AO2 T02110211
KCCA - Clinton, Arkansas
Updated: Fri, May-Fri-2018 3:35am
Clear
Clear
 Wind from calm
Wind: Calm
Temperature: 66°F , 19°C
Dew Point: 66°F , 19°C
Humidity: 100%
Barometer: 30.00 inHg , 1015.9 hPa
Clouds: Clear
Visibility: 10 miles , 16 km
2018/05/25 08:35 KCCA 250835Z AUTO 00000KT 10SM CLR 19/19 A3000 RMK AO2
KLLQ - Monticello, Arkansas
Updated: Fri, May-Fri-2018 2:53am
Clear
Clear
 Wind from calm
Wind: Calm
Temperature: 70°F , 21°C
Dew Point: 70°F , 21°C
Humidity: 100%
Barometer: 29.99 inHg , 1015.6 hPa
Clouds: Clear
Visibility: 8 miles , 13 km
2018/05/25 07:53 KLLQ 250753Z AUTO 00000KT 8SM CLR 21/21 A2999 RMK AO2 SLP151 T02110206
 
KCDH - Camden, Arkansas
Updated: Fri, May-Fri-2018 3:35am
Clear
Clear
 Wind from calm
Wind: Calm
Temperature: 70°F , 21°C
Dew Point: 66°F , 19°C
Humidity: 88%
Barometer: 29.98 inHg , 1015.2 hPa
Clouds: Clear
Visibility: 8 miles , 13 km
2018/05/25 08:35 KCDH 250835Z AUTO 00000KT 8SM CLR 21/19 A2998 RMK AO2
KM19 - Newport, Arkansas
Updated: Fri, May-Fri-2018 2:56am
Clear
Clear
 Wind from S
Wind: S 3 mph , 6 km/h
Temperature: 72°F , 22°C
Dew Point: 72°F , 22°C
Humidity: 100%
Barometer: 29.99 inHg , 1015.6 hPa
Clouds: Clear
Visibility: 10 miles , 16 km
2018/05/25 07:56 KM19 250756Z AUTO 19003KT 10SM CLR 22/22 A2999 RMK AO2 SLP158 T02220217
KDEQ - De Queen, Arkansas
Updated: Fri, May-Fri-2018 2:53am
Clear
Clear
 Wind from calm
Wind: Calm
Temperature: 68°F , 20°C
Dew Point: 68°F , 20°C
Humidity: 100%
Barometer: 29.98 inHg , 1015.2 hPa
Clouds: Clear
Visibility: 8 miles , 13 km
2018/05/25 07:53 KDEQ 250753Z AUTO 00000KT 8SM CLR 20/20 A2998 RMK AO2 SLP146 T02000200
 
KTXK - Texarkana, Arkansas
Updated: Fri, May-Fri-2018 2:53am
Clear
Clear
 Wind from SSW
Wind: SSW 3 mph , 6 km/h
Temperature: 73°F , 23°C
Dew Point: 72°F , 22°C
Humidity: 94%
Barometer: 29.99 inHg , 1015.6 hPa
Clouds: Clear
Visibility: 10 miles , 16 km
2018/05/25 07:53 KTXK 250753Z AUTO 21003KT 10SM CLR 23/22 A2999 RMK AO2 SLP149 T02280217
KELD - El Dorado, Arkansas
Updated: Fri, May-Fri-2018 2:53am
Clear
Clear
 Wind from calm
Wind: Calm
Temperature: 70°F , 21°C
Dew Point: 70°F , 21°C
Humidity: 100%
Barometer: 30.00 inHg , 1015.9 hPa
Clouds: Clear
Visibility: 10 miles , 16 km
2018/05/25 07:53 KELD 250753Z AUTO 00000KT 10SM CLR 21/21 A3000 RMK AO2 SLP154 T02110211
KCSM - Clinton, Oklahoma
Updated: Fri, May-Fri-2018 2:53am
Clear
Clear
 Wind from S
Wind: S 17 mph , 28 km/h
Temperature: 72°F , 22°C
Dew Point: 64°F , 18°C
Humidity: 78%
Barometer: 29.97 inHg , 1014.9 hPa
Clouds: Clear
Visibility: 10 miles , 16 km
2018/05/25 07:53 KCSM 250753Z AUTO 18015KT 10SM CLR 22/18 A2997 RMK AO2 SLP121 T02220178
 
KHBR - Hobart, Oklahoma
Updated: Fri, May-Fri-2018 2:53am
Clear
Clear
 Wind from S
Wind: S 16 mph , 26 km/h
Temperature: 73°F , 23°C
Dew Point: 64°F , 18°C
Humidity: 74%
Barometer: 29.96 inHg , 1014.6 hPa
Clouds: Clear
Visibility: 10 miles , 16 km
2018/05/25 07:53 KHBR 250753Z AUTO 18014KT 10SM CLR 23/18 A2996 RMK AO2 SLP124 T02280183 TSNO
KLTS - Altus Afb, Oklahoma
Updated: Fri, May-Fri-2018 2:56am
Clear
Clear
 Wind from SE
Wind: SE 10 mph , 17 km/h
Temperature: 72°F , 22°C
Dew Point: 64°F , 18°C
Humidity: 78%
Barometer: 29.95 inHg , 1014.2 hPa
Clouds: Clear
Visibility: 10 miles , 16 km
2018/05/25 07:56 KLTS 250756Z AUTO 14009KT 10SM CLR 22/18 A2995 RMK AO2 SLP127 T02190183 $
KFSI - Fort Sill, Oklahoma
Updated: Fri, May-Fri-2018 2:56am
Clear
Clear
 Wind from S
Wind: S 9 mph , 15 km/h
Temperature: 73°F , 23°C
Dew Point: 68°F , 20°C
Humidity: 83%
Barometer: 29.95 inHg , 1014.2 hPa
Clouds: Clear
Visibility: 10 miles , 16 km
2018/05/25 07:56 KFSI 250756Z AUTO 18008KT 10SM CLR 23/20 A2995 RMK AO2 SLP133 T02280199
 
KGAG - Gage, Oklahoma
Updated: Wed, Dec-Wed-1969 6:00pm
NOT Current
unable to load KGAG data RC=404 Not Found
unable to load KGAG data RC=404 Not Found
 
KWWR - Woodward, Oklahoma
Updated: Fri, May-Fri-2018 3:35am
Clear
Clear
 Wind from ESE
Wind: ESE 8 mph , 13 km/h
Temperature: 70°F , 21°C
Dew Point: 61°F , 16°C
Humidity: 73%
Barometer: 29.99 inHg , 1015.6 hPa
Clouds: Clear
Visibility: 10 miles , 16 km
2018/05/25 08:35 KWWR 250835Z AUTO 12007KT 10SM CLR 21/16 A2999 RMK AO2
KLAW - Lawton, Oklahoma
Updated: Fri, May-Fri-2018 2:53am
Clear
Clear
 
Temperature: 72°F , 22°C
Dew Point: 66°F , 19°C
Humidity: 83%
Barometer: 29.96 inHg , 1014.6 hPa
Clouds: Clear
Visibility: 10 miles , 16 km
2018/05/25 07:53 KLAW 250753Z AUTO 10SM CLR 22/19 A2996 RMK AO2 SLP134 T02170189
 
KOKC - Oklahoma City, Oklahoma
Updated: Fri, May-Fri-2018 2:52am
Partly cloudy
Partly cloudy
 Wind from S
Wind: S 6 mph , 9 km/h
Temperature: 68°F , 20°C
Dew Point: 64°F , 18°C
Humidity: 88%
Barometer: 29.97 inHg , 1014.9 hPa
Clouds: Partly cloudy
Visibility: 10 miles , 16 km
Cloud details: Few Clouds 13000 ft
Few Clouds 18000 ft
Partly cloudy 25000 ft
2018/05/25 07:52 KOKC 250752Z 17005KT 10SM FEW130 FEW180 SCT250 20/18 A2997 RMK AO2 SLP132 T02000183
KEND - Enid/Vance Afb, Oklahoma
Updated: Fri, May-Fri-2018 3:28am
Mostly cloudy
Mostly cloudy
 Wind from varies
Wind: varies 3 mph , 6 km/h
Temperature: 72°F , 22°C
Dew Point: 68°F , 20°C
Humidity: 88%
Barometer: 29.94 inHg , 1013.9 hPa
Clouds: Mostly cloudy
Visibility: 10 miles , 16 km
Cloud details: Few Clouds 9500 ft
Mostly cloudy 20000 ft
2018/05/25 08:28 KEND 250828Z VRB03KT 10SM FEW095 BKN200 22/20 A2994 RMK VIS 2 1/2 RWY17R LTG DSNT N SLP126 $
KFDR - Frederick/Altus, Oklahoma
Updated: Fri, May-Fri-2018 2:53am
Clear
Clear
 Wind from SSE
Wind: SSE 8 mph , 13 km/h
Temperature: 73°F , 23°C
Dew Point: 66°F , 19°C
Humidity: 78%
Barometer: 29.93 inHg , 1013.5 hPa
Clouds: Clear
Visibility: 10 miles , 16 km
2018/05/25 07:53 KFDR 250753Z AUTO 16007KT 10SM CLR 23/19 A2993 RMK AO2 SLP117 T02330189 $
 
KOUN - Norman, Oklahoma
Updated: Fri, May-Fri-2018 3:15am
Clear
Clear
 Wind from S
Wind: S 8 mph , 13 km/h
Temperature: 72°F , 22°C
Dew Point: 66°F , 19°C
Humidity: 83%
Barometer: 29.95 inHg , 1014.2 hPa
Clouds: Clear
Visibility: 10 miles , 16 km
2018/05/25 08:15 KOUN 250815Z AUTO 17007KT 10SM CLR 22/19 A2995 RMK AO2 T02200187
KTIK - Tinker Afb, Oklahoma
Updated: Fri, May-Fri-2018 2:56am
Clear
Clear
 Wind from S
Wind: S 10 mph , 17 km/h
Temperature: 72°F , 22°C
Dew Point: 66°F , 19°C
Humidity: 83%
Barometer: 29.96 inHg , 1014.6 hPa
Clouds: Clear
Visibility: 10 miles , 16 km
2018/05/25 07:56 KTIK 250756Z AUTO 18009KT 10SM CLR 22/19 A2996 RMK AO2 SLP139 T02240188
KGOK - Guthrie, Oklahoma
Updated: Fri, May-Fri-2018 2:53am
Clear
Clear
 Wind from S
Wind: S 7 mph , 11 km/h
Temperature: 70°F , 21°C
Dew Point: 66°F , 19°C
Humidity: 88%
Barometer: 29.95 inHg , 1014.2 hPa
Clouds: Clear
Visibility: 10 miles , 16 km
2018/05/25 07:53 KGOK 250753Z AUTO 17006KT 10SM CLR 21/19 A2995 RMK AO2 SLP130 T02110194
 
KSNL - Shawnee, Oklahoma
Updated: Fri, May-Fri-2018 3:15am
Clear
Clear
 Wind from S
Wind: S 9 mph , 15 km/h
Temperature: 72°F , 22°C
Dew Point: 64°F , 18°C
Humidity: 78%
Barometer: 29.96 inHg , 1014.6 hPa
Clouds: Clear
Visibility: 10 miles , 16 km
2018/05/25 08:15 KSNL 250815Z AUTO 18008KT 10SM CLR 22/18 A2996 RMK AO2 T02200183
KCQB - Chandler, Oklahoma
Updated: Wed, Dec-Wed-1969 6:00pm
NOT Current
unable to load KCQB data RC=404 Not Found
unable to load KCQB data RC=404 Not Found
 
KPVJ - Pauls Valley, Oklahoma
Updated: Fri, May-Fri-2018 3:35am
Clear
Clear
 Wind from SSE
Wind: SSE 5 mph , 7 km/h
Temperature: 70°F , 21°C
Dew Point: 70°F , 21°C
Humidity: 100%
Barometer: 29.96 inHg , 1014.6 hPa
Clouds: Clear
Visibility: 10 miles , 16 km
2018/05/25 08:35 KPVJ 250835Z AUTO 15004KT 10SM CLR 21/21 A2996 RMK AO2 T02100210
 
KEND - Enid/Vance Afb, Oklahoma
Updated: Fri, May-Fri-2018 3:28am
Mostly cloudy
Mostly cloudy
 Wind from varies
Wind: varies 3 mph , 6 km/h
Temperature: 72°F , 22°C
Dew Point: 68°F , 20°C
Humidity: 88%
Barometer: 29.94 inHg , 1013.9 hPa
Clouds: Mostly cloudy
Visibility: 10 miles , 16 km
Cloud details: Few Clouds 9500 ft
Mostly cloudy 20000 ft
2018/05/25 08:28 KEND 250828Z VRB03KT 10SM FEW095 BKN200 22/20 A2994 RMK VIS 2 1/2 RWY17R LTG DSNT N SLP126 $
KSWO - Stillwater, Oklahoma
Updated: Fri, May-Fri-2018 2:53am
Clear
Clear
 Wind from S
Wind: S 3 mph , 6 km/h
Temperature: 70°F , 21°C
Dew Point: 64°F , 18°C
Humidity: 83%
Barometer: 29.96 inHg , 1014.6 hPa
Clouds: Clear
Visibility: 10 miles , 16 km
2018/05/25 07:53 KSWO 250753Z AUTO 18003KT 10SM CLR 21/18 A2996 RMK AO2 SLP130 T02110183
KFSI - Fort Sill, Oklahoma
Updated: Fri, May-Fri-2018 2:56am
Clear
Clear
 Wind from S
Wind: S 9 mph , 15 km/h
Temperature: 73°F , 23°C
Dew Point: 68°F , 20°C
Humidity: 83%
Barometer: 29.95 inHg , 1014.2 hPa
Clouds: Clear
Visibility: 10 miles , 16 km
2018/05/25 07:56 KFSI 250756Z AUTO 18008KT 10SM CLR 23/20 A2995 RMK AO2 SLP133 T02280199
 
KDUC - Duncan, Oklahoma
Updated: Fri, May-Fri-2018 3:35am
Clear
Clear
 Wind from SSE
Wind: SSE 6 mph , 9 km/h
Temperature: 70°F , 21°C
Dew Point: 66°F , 19°C
Humidity: 88%
Barometer: 29.97 inHg , 1014.9 hPa
Clouds: Clear
Visibility: 10 miles , 16 km
2018/05/25 08:35 KDUC 250835Z AUTO 16005KT 10SM CLR 21/19 A2997 RMK AO2 T02110187
KOKM - Okmulgee, Oklahoma
Updated: Fri, May-Fri-2018 3:35am
Clear
Clear
 Wind from S
Wind: S 9 mph , 15 km/h
Temperature: 72°F , 22°C
Dew Point: 72°F , 22°C
Humidity: 100%
Barometer: 29.96 inHg , 1014.6 hPa
Clouds: Clear
Visibility: 10 miles , 16 km
2018/05/25 08:35 KOKM 250835Z AUTO 18008KT 10SM CLR 22/22 A2996 RMK AO2 T02150215
KMLC - Mcalester, Oklahoma
Updated: Fri, May-Fri-2018 2:53am
Clear
Clear
 Wind from ESE
Wind: ESE 3 mph , 6 km/h
Temperature: 72°F , 22°C
Dew Point: 68°F , 20°C
Humidity: 88%
Barometer: 29.99 inHg , 1015.6 hPa
Clouds: Clear
Visibility: 10 miles , 16 km
2018/05/25 07:53 KMLC 250753Z AUTO 12003KT 10SM CLR 22/20 A2999 RMK AO2 SLP146 T02170200
 
KMKO - Muskogee, Oklahoma
Updated: Fri, May-Fri-2018 2:53am
Clear
Clear
 Wind from SSE
Wind: SSE 6 mph , 9 km/h
Temperature: 70°F , 21°C
Dew Point: 70°F , 21°C
Humidity: 100%
Barometer: 29.99 inHg , 1015.6 hPa
Clouds: Clear
Visibility: 10 miles , 16 km
2018/05/25 07:53 KMKO 250753Z AUTO 16005KT 10SM CLR 21/21 A2999 RMK AO2 SLP148 T02060206
KRVS - Tulsa, Oklahoma
Updated: Wed, Dec-Wed-1969 6:00pm
NOT Current
unable to load KRVS data RC=404 Not Found
unable to load KRVS data RC=404 Not Found
 
KGZL - Stigler, Oklahoma
Updated: Fri, May-Fri-2018 3:35am
Clear
Clear
 Wind from ESE
Wind: ESE 3 mph , 6 km/h
Temperature: 68°F , 20°C
Dew Point: 68°F , 20°C
Humidity: 100%
Barometer: 29.98 inHg , 1015.2 hPa
Clouds: Clear
Visibility: 10 miles , 16 km
2018/05/25 08:35 KGZL 250835Z AUTO 11003KT 10SM CLR 20/20 A2998 RMK AO2
 
KADH - Ada, Oklahoma
Updated: Fri, May-Fri-2018 3:35am
Partly cloudy
Partly cloudy
 Wind from SE
Wind: SE 5 mph , 7 km/h
Temperature: 70°F , 21°C
Dew Point: 68°F , 20°C
Humidity: 94%
Barometer: 29.98 inHg , 1015.2 hPa
Clouds: Partly cloudy
Visibility: 10 miles , 16 km
Cloud details: Partly cloudy 11000 ft
2018/05/25 08:35 KADH 250835Z AUTO 14004KT 10SM SCT110 21/20 A2998 RMK AO2
KAQR - Atoka, Oklahoma
Updated: Fri, May-Fri-2018 3:35am
Clear
Clear
 Wind from calm
Wind: Calm
Temperature: 70°F , 21°C
Dew Point: 64°F , 18°C
Humidity: 83%
Barometer: 29.98 inHg , 1015.2 hPa
Clouds: Clear
Visibility: 10 miles , 16 km
2018/05/25 08:35 KAQR 250835Z AUTO 00000KT 10SM CLR 21/18 A2998 RMK AO2
KJSV - Sallisaw, Oklahoma
Updated: Fri, May-Fri-2018 3:35am
Clear
Clear
 Wind from calm
Wind: Calm
Temperature: 68°F , 20°C
Dew Point: 63°F , 17°C
Humidity: 83%
Barometer: 29.99 inHg , 1015.6 hPa
Clouds: Clear
Visibility: 10 miles , 16 km
2018/05/25 08:35 KJSV 250835Z AUTO 00000KT 10SM CLR 20/17 A2999 RMK AO2
 
KTQH - Tahlequah, Oklahoma
Updated: Fri, May-Fri-2018 3:35am
Clear
Clear
 Wind from calm
Wind: Calm
Temperature: 64°F , 18°C
Dew Point: 64°F , 18°C
Humidity: 100%
Barometer: 29.99 inHg , 1015.6 hPa
Clouds: Clear
Visibility: 10 miles , 16 km
2018/05/25 08:35 KTQH 250835Z AUTO 00000KT 10SM CLR 18/18 A2999 RMK AO2
KGCM - Claremore, Oklahoma
Updated: Fri, May-Fri-2018 3:35am
Clear
Clear
 Wind from SSE
Wind: SSE 6 mph , 9 km/h
Temperature: 68°F , 20°C
Dew Point: 64°F , 18°C
Humidity: 88%
Barometer: 29.98 inHg , 1015.2 hPa
Clouds: Clear
Visibility: 10 miles , 16 km
2018/05/25 08:35 KGCM 250835Z AUTO 16005KT 10SM CLR 20/18 A2998 RMK AO2
KRKR - Poteau, Oklahoma
Updated: Fri, May-Fri-2018 3:35am
Clear
Clear
 Wind from calm
Wind: Calm
Temperature: 64°F , 18°C
Dew Point: 64°F , 18°C
Humidity: 100%
Barometer: 29.99 inHg , 1015.6 hPa
Clouds: Clear
Visibility: 7 miles , 11 km
2018/05/25 08:35 KRKR 250835Z AUTO 00000KT 7SM CLR 18/18 A2999 RMK AO2
 
KGMJ - Grove, Oklahoma
Updated: Fri, May-Fri-2018 3:35am
Clear
Clear
 Wind from SSE
Wind: SSE 3 mph , 6 km/h
Temperature: 72°F , 22°C
Dew Point: 64°F , 18°C
Humidity: 78%
Barometer: 29.99 inHg , 1015.6 hPa
Clouds: Clear
Visibility: 10 miles , 16 km
2018/05/25 08:35 KGMJ 250835Z AUTO 16003KT 10SM CLR 22/18 A2999 RMK AO2
K4O4 - Idabel, Oklahoma
Updated: Fri, May-Fri-2018 3:35am
Clear
Clear
 Wind from calm
Wind: Calm
Temperature: 66°F , 19°C
Dew Point: 64°F , 18°C
Humidity: 94%
Barometer: 29.99 inHg , 1015.6 hPa
Clouds: Clear
Visibility: 10 miles , 16 km
2018/05/25 08:35 K4O4 250835Z AUTO 00000KT 10SM CLR 19/18 A2999 RMK AO2
KHHW - Hugo, Oklahoma
Updated: Wed, Dec-Wed-1969 6:00pm
NOT Current
unable to load KHHW data RC=404 Not Found
unable to load KHHW data RC=404 Not Found
 
 
KDUA - Durant, Oklahoma
Updated: Wed, Dec-Wed-1969 6:00pm
NOT Current
unable to load KDUA data RC=404 Not Found
unable to load KDUA data RC=404 Not Found
 
KSTJ - St. Joseph, Missouri
Updated: Fri, May-Fri-2018 2:53am
Clear
Clear
 Wind from S
Wind: S 6 mph , 9 km/h
Temperature: 70°F , 21°C
Dew Point: 64°F , 18°C
Humidity: 83%
Barometer: 29.93 inHg , 1013.5 hPa
Clouds: Clear
Visibility: 10 miles , 16 km
2018/05/25 07:53 KSTJ 250753Z AUTO 17005KT 10SM CLR 21/18 A2993 RMK AO2 LTG DSNT SE SLP126 T02110183
KMCI - Kansas City/Intl, Missouri
Updated: Fri, May-Fri-2018 3:08am
Light rain, Overcast
Light rain, Overcast
 Wind from SSE
Wind: SSE 12 mph , 19 km/h
Temperature: 66°F , 19°C
Dew Point: 66°F , 19°C
Humidity: 100%
Barometer: 29.95 inHg , 1014.2 hPa
Summary: Light rain
Clouds: Overcast
Visibility: 9 miles , 14 km
Cloud details: Partly cloudy 6000 ft
Mostly cloudy 7500 ft
Overcast 11000 ft
2018/05/25 08:08 KMCI 250808Z 15010KT 9SM -RA SCT060 BKN075 OVC110 19/19 A2995 RMK AO2 LTG DSNT NE-S RAB0755 P0002 T01940189
 
KMKC - Kansas City/Dntn, Missouri
Updated: Fri, May-Fri-2018 2:54am
Light thunderstorm, Rain, Overcast
Light thunderstorm, Rain, Overcast
 Wind from ESE
Wind: ESE 9 mph , 15 km/h
Temperature: 72°F , 22°C
Dew Point: 64°F , 18°C
Humidity: 78%
Barometer: 29.95 inHg , 1014.2 hPa
Summary: Light thunderstorm, Rain
Clouds: Overcast
Visibility: 10 miles , 16 km
Cloud details: Overcast 4200 ft
2018/05/25 07:54 KMKC 250754Z 12008KT 10SM -TSRA OVC042 22/18 A2995 RMK AO2 LTG DSNT ALQDS RAB28 TSB20E35B47 SLP134 P0000 T02170178
KCDJ - Chillicothe, Missouri
Updated: Fri, May-Fri-2018 2:52am

 Wind from calm
Wind: Calm
Temperature: 70°F , 21°C
Dew Point: 64°F , 18°C
Humidity: 83%
Barometer: 29.96 inHg , 1014.6 hPa
2018/05/25 07:52 KCDJ 250752Z AUTO 00000KT 21/18 A2996 RMK AO1 SLP132 T02060178
KIRK - Kirksville, Missouri
Updated: Fri, May-Fri-2018 2:55am
Clear
Clear
 Wind from S
Wind: S 7 mph , 11 km/h
Temperature: 70°F , 21°C
Dew Point: 66°F , 19°C
Humidity: 88%
Barometer: 29.98 inHg , 1015.2 hPa
Clouds: Clear
Visibility: 10 miles , 16 km
2018/05/25 07:55 KIRK 250755Z AUTO 18006KT 10SM CLR 21/19 A2998 RMK AO2 SLP146 T02110194
 
KSZL - Whiteman Afb, Missouri
Updated: Fri, May-Fri-2018 2:56am
Overcast
Overcast
 Wind from SE
Wind: SE 3 mph , 6 km/h
Temperature: 68°F , 20°C
Dew Point: 66°F , 19°C
Humidity: 94%
Barometer: 29.93 inHg , 1013.5 hPa
Clouds: Overcast
Visibility: 10 miles , 16 km
Cloud details: Overcast 3000 ft
2018/05/25 07:56 KSZL 250756Z 13003KT 10SM OVC030 20/19 A2993 RMK AO2A LTG DSNT W SLP130 T01960186 $
KDMO - Sedalia, Missouri
Updated: Fri, May-Fri-2018 2:53am
Partly cloudy
Partly cloudy
 Wind from SE
Wind: SE 5 mph , 7 km/h
Temperature: 70°F , 21°C
Dew Point: 66°F , 19°C
Humidity: 88%
Barometer: 30.00 inHg , 1015.9 hPa
Clouds: Partly cloudy
Visibility: 10 miles , 16 km
Cloud details: Partly cloudy 12000 ft
2018/05/25 07:53 KDMO 250753Z AUTO 13004KT 10SM SCT120 21/19 A3000 RMK AO2 SLP150 T02060189
KGLY - Clinton, Missouri
Updated: Fri, May-Fri-2018 3:35am
Mostly cloudy
Mostly cloudy
 Wind from calm
Wind: Calm
Temperature: 66°F , 19°C
Dew Point: 66°F , 19°C
Humidity: 100%
Barometer: 29.97 inHg , 1014.9 hPa
Clouds: Mostly cloudy
Visibility: 8 miles , 13 km
Cloud details: Mostly cloudy 11000 ft
2018/05/25 08:35 KGLY 250835Z AUTO 00000KT 8SM BKN110 19/19 A2997 RMK AO2 LTG DSNT W
 
KCOU - Columbia, Missouri
Updated: Fri, May-Fri-2018 2:54am
Clear
Clear
 Wind from S
Wind: S 5 mph , 7 km/h
Temperature: 70°F , 21°C
Dew Point: 66°F , 19°C
Humidity: 88%
Barometer: 29.99 inHg , 1015.6 hPa
Clouds: Clear
Visibility: 10 miles , 16 km
2018/05/25 07:54 KCOU 250754Z AUTO 17004KT 10SM CLR 21/19 A2999 RMK AO2 SLP147 T02110194
KJEF - Jefferson City, Missouri
Updated: Fri, May-Fri-2018 2:53am
Clear
Clear
 Wind from ESE
Wind: ESE 3 mph , 6 km/h
Temperature: 72°F , 22°C
Dew Point: 68°F , 20°C
Humidity: 88%
Barometer: 29.98 inHg , 1015.2 hPa
Clouds: Clear
Visibility: 10 miles , 16 km
2018/05/25 07:53 KJEF 250753Z AUTO 11003KT 10SM CLR 22/20 A2998 RMK AO2 SLP138 T02170200
KVIH - Vichy/Rolla, Missouri
Updated: Fri, May-Fri-2018 2:53am
Clear
Clear
 Wind from SSW
Wind: SSW 7 mph , 11 km/h
Temperature: 68°F , 20°C
Dew Point: 64°F , 18°C
Humidity: 88%
Barometer: 30.02 inHg , 1016.6 hPa
Clouds: Clear
Visibility: 10 miles , 16 km
2018/05/25 07:53 KVIH 250753Z AUTO 20006KT 10SM CLR 20/18 A3002 RMK AO2 SLP153 T02000178
 
KTBN - Fort Leonard Wood, Missouri
Updated: Fri, May-Fri-2018 2:56am
Clear
Clear
 Wind from SW
Wind: SW 3 mph , 6 km/h
Temperature: 68°F , 20°C
Dew Point: 66°F , 19°C
Humidity: 94%
Barometer: 30.01 inHg , 1016.3 hPa
Clouds: Clear
Visibility: 10 miles , 16 km
2018/05/25 07:56 KTBN 250756Z AUTO 22003KT 10SM CLR 20/19 A3001 RMK AO2 SLP155 T02030189
KJLN - Joplin, Missouri
Updated: Fri, May-Fri-2018 2:53am
Overcast
Overcast
 Wind from SSE
Wind: SSE 13 mph , 20 km/h, Gust: 21 mph , 33 km/h
Temperature: 72°F , 22°C
Dew Point: 66°F , 19°C
Humidity: 83%
Barometer: 29.97 inHg , 1014.9 hPa
Clouds: Overcast
Visibility: 10 miles , 16 km
Cloud details: Few Clouds 9000 ft
Overcast 11000 ft
2018/05/25 07:53 KJLN 250753Z AUTO 16011G18KT 10SM FEW090 OVC110 22/19 A2997 RMK AO2 RAB41E52 SLP139 P0000 T02170189
KHFJ - Monett, Missouri
Updated: Fri, May-Fri-2018 3:10am
Mostly cloudy
Mostly cloudy
 Wind from SSE
Wind: SSE 5 mph , 7 km/h
Temperature: 68°F , 20°C
Dew Point: 66°F , 19°C
Humidity: 94%
Barometer: 30.00 inHg , 1015.9 hPa
Clouds: Mostly cloudy
Visibility: 10 miles , 16 km
Cloud details: Mostly cloudy 12000 ft
2018/05/25 08:10 KHFJ 250810Z AUTO 15004KT 10SM BKN120 20/19 A3000 RMK AO2
 
KSGF - Springfield, Missouri
Updated: Fri, May-Fri-2018 2:52am
Clear
Clear
 Wind from SSE
Wind: SSE 6 mph , 9 km/h
Temperature: 70°F , 21°C
Dew Point: 66°F , 19°C
Humidity: 88%
Barometer: 30.01 inHg , 1016.3 hPa
Clouds: Clear
Visibility: 9 miles , 14 km
2018/05/25 07:52 KSGF 250752Z 15005KT 9SM CLR 21/19 A3001 RMK AO2 SLP150 T02060189
KBBG - Branson, Missouri
Updated: Fri, May-Fri-2018 3:35am
Clear
Clear
 Wind from calm
Wind: Calm
Temperature: 64°F , 18°C
Dew Point: 64°F , 18°C
Humidity: 100%
Barometer: 30.02 inHg , 1016.6 hPa
Clouds: Clear
Visibility: 10 miles , 16 km
2018/05/25 08:35 KBBG 250835Z AUTO 00000KT 10SM CLR 18/18 A3002 RMK AO2
KUNO - West Plains, Missouri
Updated: Fri, May-Fri-2018 2:53am
Clear
Clear
 Wind from WSW
Wind: WSW 3 mph , 6 km/h
Temperature: 68°F , 20°C
Dew Point: 66°F , 19°C
Humidity: 94%
Barometer: 30.03 inHg , 1016.9 hPa
Clouds: Clear
Visibility: 10 miles , 16 km
2018/05/25 07:53 KUNO 250753Z AUTO 25003KT 10SM CLR 20/19 A3003 RMK AO2 SLP156 T02000189
 
KFAM - Farmington, Missouri
Updated: Fri, May-Fri-2018 2:56am
Clear
Clear
 Wind from calm
Wind: Calm
Temperature: 64°F , 18°C
Dew Point: 64°F , 18°C
Humidity: 100%
Barometer: 30.03 inHg , 1016.9 hPa
Clouds: Clear
Visibility: 10 miles , 16 km
2018/05/25 07:56 KFAM 250756Z AUTO 00000KT 10SM CLR 18/18 A3003 RMK AO2 SLP159 T01830178
KCGI - Cape Girardeau, Missouri
Updated: Fri, May-Fri-2018 2:53am
Clear
Clear
 Wind from calm
Wind: Calm
Temperature: 70°F , 21°C
Dew Point: 64°F , 18°C
Humidity: 83%
Barometer: 29.99 inHg , 1015.6 hPa
Clouds: Clear
Visibility: 10 miles , 16 km
2018/05/25 07:53 KCGI 250753Z AUTO 00000KT 10SM CLR 21/18 A2999 RMK AO2 SLP153 T02060183
KSTL - St. Louis, Missouri
Updated: Fri, May-Fri-2018 2:51am
Partly cloudy
Partly cloudy
 Wind from S
Wind: S 5 mph , 7 km/h
Temperature: 75°F , 24°C
Dew Point: 63°F , 17°C
Humidity: 65%
Barometer: 30.00 inHg , 1015.9 hPa
Clouds: Partly cloudy
Visibility: 10 miles , 16 km
Cloud details: Few Clouds 6000 ft
Partly cloudy 12000 ft
Partly cloudy 25000 ft
2018/05/25 07:51 KSTL 250751Z 18004KT 10SM FEW060 SCT120 SCT250 24/17 A3000 RMK AO2 SLP146 T02390167
 
KPOF - Popular Bluff, Missouri
Updated: Fri, May-Fri-2018 2:53am
Few Clouds
Few Clouds
 Wind from calm
Wind: Calm
Temperature: 73°F , 23°C
Dew Point: 72°F , 22°C
Humidity: 94%
Barometer: 29.99 inHg , 1015.6 hPa
Clouds: Few Clouds
Visibility: 9 miles , 14 km
Cloud details: Few Clouds 5500 ft
2018/05/25 07:53 KPOF 250753Z AUTO 00000KT 9SM FEW055 23/22 A2999 RMK AO2 SLP149 T02280217
KSET - St. Charles, Missouri
Updated: Fri, May-Fri-2018 2:54am
Clear
Clear
 Wind from calm
Wind: Calm
Temperature: 68°F , 20°C
Dew Point: 66°F , 19°C
Humidity: 94%
Barometer: 29.98 inHg , 1015.2 hPa
Clouds: Clear
Visibility: 10 miles , 16 km
2018/05/25 07:54 KSET 250754Z AUTO 00000KT 10SM CLR 20/19 A2998 RMK AO2 SLP148 T02000189
KGLD - Goodland, Kansas
Updated: Fri, May-Fri-2018 2:53am
Clear
Clear
 Wind from SSE
Wind: SSE 9 mph , 15 km/h
Temperature: 55°F , 13°C
Dew Point: 48°F , 9°C
Humidity: 77%
Barometer: 30.02 inHg , 1016.6 hPa
Clouds: Clear
Visibility: 10 miles , 16 km
2018/05/25 07:53 KGLD 250753Z AUTO 16008KT 10SM CLR 13/09 A3002 RMK AO2 RAB10E40 SLP126 P0000 T01280094 $
 
KHLC - Hill City, Kansas
Updated: Fri, May-Fri-2018 2:53am
Clear
Clear
 Wind from calm
Wind: Calm
Temperature: 59°F , 15°C
Dew Point: 55°F , 13°C
Humidity: 88%
Barometer: 29.96 inHg , 1014.6 hPa
Clouds: Clear
Visibility: 10 miles , 16 km
2018/05/25 07:53 KHLC 250753Z AUTO 00000KT 10SM CLR 15/13 A2996 RMK AO2 SLP124 T01500128
KHYS - Hays Muni, Kansas
Updated: Fri, May-Fri-2018 2:56am
Clear
Clear
 Wind from SSE
Wind: SSE 6 mph , 9 km/h
Temperature: 61°F , 16°C
Dew Point: 57°F , 14°C
Humidity: 88%
Barometer: 29.97 inHg , 1014.9 hPa
Clouds: Clear
Visibility: 10 miles , 16 km
2018/05/25 07:56 KHYS 250756Z AUTO 15005KT 10SM CLR 16/14 A2997 RMK AO2 SLP135 T01560144
KRSL - Russell, Kansas
Updated: Fri, May-Fri-2018 2:53am
Few Clouds
Few Clouds
 Wind from SE
Wind: SE 10 mph , 17 km/h
Temperature: 63°F , 17°C
Dew Point: 61°F , 16°C
Humidity: 94%
Barometer: 29.93 inHg , 1013.5 hPa
Clouds: Few Clouds
Visibility: 10 miles , 16 km
Cloud details: Few Clouds 8000 ft
2018/05/25 07:53 KRSL 250753Z AUTO 14009KT 10SM FEW080 17/16 A2993 RMK AO2 LTG DSNT E AND SE RAB06E15 TSE15 SLP120 P0000 T01720161
 
KGBD - Great Bend, Kansas
Updated: Wed, Dec-Wed-1969 6:00pm
NOT Current
unable to load KGBD data RC=404 Not Found
unable to load KGBD data RC=404 Not Found
 
KDDC - Dodge City, Kansas
Updated: Fri, May-Fri-2018 2:52am
Clear
Clear
 Wind from NW
Wind: NW 3 mph , 6 km/h
Temperature: 63°F , 17°C
Dew Point: 55°F , 13°C
Humidity: 77%
Barometer: 30.00 inHg , 1015.9 hPa
Clouds: Clear
Visibility: 10 miles , 16 km
2018/05/25 07:52 KDDC 250752Z AUTO 32003KT 10SM CLR 17/13 A3000 RMK AO2 RAB13E24 SLP127 P0000 T01720133
KPTT - Pratt Indust, Kansas
Updated: Fri, May-Fri-2018 3:15am
Clear
Clear
 Wind from NE
Wind: NE 14 mph , 22 km/h
Temperature: 68°F , 20°C
Dew Point: 61°F , 16°C
Humidity: 78%
Barometer: 29.95 inHg , 1014.2 hPa
Clouds: Clear
Visibility: 10 miles , 16 km
2018/05/25 08:15 KPTT 250815Z AUTO 04012KT 10SM CLR 20/16 A2995 RMK AO2 LTG DSNT E AND SW T01980163
 
KSLN - Salina, Kansas
Updated: Fri, May-Fri-2018 2:53am
Nearby thunderstorm, Rain, Mist, Overcast
Nearby thunderstorm, Rain, Mist, Overcast
 Wind from S
Wind: S 7 mph , 11 km/h
Temperature: 68°F , 20°C
Dew Point: 64°F , 18°C
Humidity: 88%
Barometer: 29.97 inHg , 1014.9 hPa
Summary: Nearby thunderstorm, Rain, Mist
Clouds: Overcast
Visibility: 5 miles , 8 km
Cloud details: Mostly cloudy 9000 ft
Overcast 10000 ft
2018/05/25 07:53 KSLN 250753Z AUTO 19006KT 5SM VCTS RA BR BKN090 OVC100 20/18 A2997 RMK AO2 WSHFT 0717 LTG DSNT ALQDS SLP137 P0009 T02000178
KHUT - Hutchinson, Kansas
Updated: Fri, May-Fri-2018 3:02am
Nearby thunderstorm, Overcast
Nearby thunderstorm, Overcast
 Wind from NNE
Wind: NNE 12 mph , 19 km/h
Temperature: 63°F , 17°C
Dew Point: 61°F , 16°C
Humidity: 94%
Barometer: 29.99 inHg , 1015.6 hPa
Summary: Nearby Thunderstorm
Clouds: Overcast
Visibility: 10 miles , 16 km
Cloud details: Mostly cloudy 4300 ft
Mostly cloudy 5500 ft
Overcast 7500 ft
2018/05/25 08:02 KHUT 250802Z AUTO 02010KT 10SM VCTS BKN043 BKN055 OVC075 17/16 A2999 RMK AO2 LTG DSNT ALQDS TSE0756 T01670156
KGCK - Garden City, Kansas
Updated: Fri, May-Fri-2018 2:54am
Clear
Clear
 Wind from ESE
Wind: ESE 9 mph , 15 km/h
Temperature: 66°F , 19°C
Dew Point: 54°F , 12°C
Humidity: 64%
Barometer: 29.98 inHg , 1015.2 hPa
Clouds: Clear
Visibility: 10 miles , 16 km
2018/05/25 07:54 KGCK 250754Z AUTO 12008KT 10SM CLR 19/12 A2998 RMK AO2 SLP116 T01890122
 
KP28 - Medicine Lodge, Kansas
Updated: Fri, May-Fri-2018 2:56am

 Wind from NW
Wind: NW 10 mph , 17 km/h, Gust: 23 mph , 37 km/h
Temperature: 73°F , 23°C
Dew Point: 54°F , 12°C
Humidity: 50%
Barometer: 29.93 inHg , 1013.5 hPa
2018/05/25 07:56 KP28 250756Z AUTO 32009G20KT 23/12 A2993 RMK AO1 PK WND 34048/0744 SLP120 T02280117
KICT - Wichita, Kansas
Updated: Fri, May-Fri-2018 3:24am
Light thunderstorm, Rain, Overcast
Light thunderstorm, Rain, Overcast
 Wind from NE
Wind: NE 15 mph , 24 km/h
Temperature: 70°F , 21°C
Dew Point: 61°F , 16°C
Humidity: 73%
Barometer: 29.98 inHg , 1015.2 hPa
Summary: Light thunderstorm, Rain
Clouds: Overcast
Visibility: 10 miles , 16 km
Cloud details: Mostly cloudy 2900 ft
Overcast 4000 ft
2018/05/25 08:24 KICT 250824Z 04013KT 10SM -TSRA BKN029 OVC040CB 21/16 A2998 RMK AO2 PK WND 02029/0812 LTG DSNT N AND NE RAB12 TSE10B21 FRQ LTGICCC VC NW-NE TS VC NW-NE MOV SE P0000 T02110156
KRSL - Russell, Kansas
Updated: Fri, May-Fri-2018 2:53am
Few Clouds
Few Clouds
 Wind from SE
Wind: SE 10 mph , 17 km/h
Temperature: 63°F , 17°C
Dew Point: 61°F , 16°C
Humidity: 94%
Barometer: 29.93 inHg , 1013.5 hPa
Clouds: Few Clouds
Visibility: 10 miles , 16 km
Cloud details: Few Clouds 8000 ft
2018/05/25 07:53 KRSL 250753Z AUTO 14009KT 10SM FEW080 17/16 A2993 RMK AO2 LTG DSNT E AND SE RAB06E15 TSE15 SLP120 P0000 T01720161
 
KMHK - Manhattan, Kansas
Updated: Fri, May-Fri-2018 2:52am
Clear
Clear
 Wind from SSW
Wind: SSW 8 mph , 13 km/h
Temperature: 70°F , 21°C
Dew Point: 64°F , 18°C
Humidity: 83%
Barometer: 29.91 inHg , 1012.9 hPa
Clouds: Clear
Visibility: 10 miles , 16 km
2018/05/25 07:52 KMHK 250752Z AUTO 20007KT 10SM CLR 21/18 A2991 RMK AO2 SLP117 T02060178
KEMP - Emporia, Kansas
Updated: Fri, May-Fri-2018 3:13am
Mostly cloudy
Mostly cloudy
 Wind from SSE
Wind: SSE 9 mph , 15 km/h
Temperature: 68°F , 20°C
Dew Point: 64°F , 18°C
Humidity: 88%
Barometer: 29.94 inHg , 1013.9 hPa
Clouds: Mostly cloudy
Visibility: 10 miles , 16 km
Cloud details: Few Clouds 1600 ft
Partly cloudy 3500 ft
Mostly cloudy 4900 ft
2018/05/25 08:13 KEMP 250813Z AUTO 15008KT 10SM FEW016 SCT035 BKN049 20/18 A2994 RMK AO2 LTG DSNT SW PRESFR T02000183
KTOP - Topeka, Kansas
Updated: Fri, May-Fri-2018 3:12am
Overcast
Overcast
 Wind from WSW
Wind: WSW 5 mph , 7 km/h
Temperature: 68°F , 20°C
Dew Point: 66°F , 19°C
Humidity: 94%
Barometer: 29.93 inHg , 1013.5 hPa
Clouds: Overcast
Visibility: 10 miles , 16 km
Cloud details: Mostly cloudy 1000 ft
Overcast 4900 ft
2018/05/25 08:12 KTOP 250812Z AUTO 25004KT 10SM BKN010 OVC049 20/19 A2993 RMK AO2 CIG 009V014 T02000194
 
KCNU - Chanute, Kansas
Updated: Fri, May-Fri-2018 2:52am
Partly cloudy
Partly cloudy
 Wind from SSE
Wind: SSE 7 mph , 11 km/h
Temperature: 68°F , 20°C
Dew Point: 66°F , 19°C
Humidity: 94%
Barometer: 29.96 inHg , 1014.6 hPa
Clouds: Partly cloudy
Visibility: 10 miles , 16 km
Cloud details: Partly cloudy 7000 ft
2018/05/25 07:52 KCNU 250752Z AUTO 16006KT 10SM SCT070 20/19 A2996 RMK AO2 SLP134 T02000194
KLWC - Lawrence, Kansas
Updated: Fri, May-Fri-2018 2:52am
Clear
Clear
 Wind from SE
Wind: SE 5 mph , 7 km/h
Temperature: 68°F , 20°C
Dew Point: 66°F , 19°C
Humidity: 94%
Barometer: 29.94 inHg , 1013.9 hPa
Clouds: Clear
Visibility: 10 miles , 16 km
2018/05/25 07:52 KLWC 250752Z AUTO 13004KT 10SM CLR 20/19 A2994 RMK AO2 LTG DSNT E SLP130 T02000189
KPPF - Parsons, Kansas
Updated: Fri, May-Fri-2018 2:52am
Clear
Clear
 Wind from SE
Wind: SE 3 mph , 6 km/h
Temperature: 70°F , 21°C
Dew Point: 68°F , 20°C
Humidity: 94%
Barometer: 29.97 inHg , 1014.9 hPa
Clouds: Clear
Visibility: 10 miles , 16 km
2018/05/25 07:52 KPPF 250752Z AUTO 14003KT 10SM CLR 21/20 A2997 RMK AO2 SLP138 T02110200
 
KIDP - Independence, Kansas
Updated: Fri, May-Fri-2018 3:15am
Clear
Clear
 Wind from S
Wind: S 8 mph , 13 km/h
Temperature: 70°F , 21°C
Dew Point: 66°F , 19°C
Humidity: 88%
Barometer: 29.95 inHg , 1014.2 hPa
Clouds: Clear
Visibility: 10 miles , 16 km
2018/05/25 08:15 KIDP 250815Z AUTO 17007KT 10SM CLR 21/19 A2995 RMK AO2 LTG DSNT NW T02070191
KOJC - Olathe, Kansas
Updated: Fri, May-Fri-2018 3:23am
Mostly cloudy
Mostly cloudy
 Wind from SE
Wind: SE 6 mph , 9 km/h
Temperature: 66°F , 19°C
Dew Point: 66°F , 19°C
Humidity: 100%
Barometer: 29.95 inHg , 1014.2 hPa
Clouds: Mostly cloudy
Visibility: 10 miles , 16 km
Cloud details: Partly cloudy 6500 ft
Partly cloudy 7500 ft
Mostly cloudy 10000 ft
2018/05/25 08:23 KOJC 250823Z AUTO 14005KT 10SM SCT065 SCT075 BKN100 19/19 A2995 RMK AO2 LTG DSNT NE-S RAE10 P0000 T01940189
KCFV - Coffeyville, Kansas
Updated: Fri, May-Fri-2018 2:52am
Clear
Clear
 Wind from SSE
Wind: SSE 6 mph , 9 km/h
Temperature: 70°F , 21°C
Dew Point: 66°F , 19°C
Humidity: 88%
Barometer: 29.95 inHg , 1014.2 hPa
Clouds: Clear
Visibility: 10 miles , 16 km
2018/05/25 07:52 KCFV 250752Z AUTO 15005KT 10SM CLR 21/19 A2995 RMK AO2 SLP135 T02060194
 
KPTS - Pittsburg, Kansas
Updated: Fri, May-Fri-2018 3:35am
Light rain, Mostly cloudy
Light rain, Mostly cloudy
 Wind from SSE
Wind: SSE 5 mph , 7 km/h
Temperature: 72°F , 22°C
Dew Point: 72°F , 22°C
Humidity: 100%
Barometer: 29.94 inHg , 1013.9 hPa
Summary: Light rain
Clouds: Mostly cloudy
Visibility: 10 miles , 16 km
Cloud details: Partly cloudy 8500 ft
Mostly cloudy 10000 ft
Mostly cloudy 12000 ft
2018/05/25 08:35 KPTS 250835Z AUTO 16004KT 10SM -RA SCT085 BKN100 BKN120 22/22 A2994 RMK AO2 LTG DSNT N P0001 T02170218
KLGA - New York City, New York
Updated: Fri, May-Fri-2018 2:51am
Clear
Clear
 Wind from WSW
Wind: WSW 9 mph , 15 km/h
Temperature: 70°F , 21°C
Dew Point: 50°F , 10°C
Humidity: 50%
Barometer: 30.05 inHg , 1017.6 hPa
Clouds: Clear
Visibility: 10 miles , 16 km
2018/05/25 07:51 KLGA 250751Z 24008KT 10SM CLR 21/10 A3005 RMK AO2 SLP174 T02110100
KCLT - Charlotte, North Carolina
Updated: Fri, May-Fri-2018 2:52am
Overcast
Overcast
 Wind from SE
Wind: SE 5 mph , 7 km/h
Temperature: 72°F , 22°C
Dew Point: 70°F , 21°C
Humidity: 94%
Barometer: 30.12 inHg , 1020 hPa
Clouds: Overcast
Visibility: 9 miles , 14 km
Cloud details: Mostly cloudy 800 ft
Mostly cloudy 5500 ft
Overcast 7500 ft
2018/05/25 07:52 KCLT 250752Z 13004KT 9SM BKN008 BKN055 OVC075 22/21 A3012 RMK AO2 SLP192 T02170211 $
 
KATL - Atlanta, Georgia
Updated: Fri, May-Fri-2018 2:52am
Overcast
Overcast
 Wind from E
Wind: E 7 mph , 11 km/h
Temperature: 72°F , 22°C
Dew Point: 66°F , 19°C
Humidity: 83%
Barometer: 30.06 inHg , 1017.9 hPa
Clouds: Overcast
Visibility: 10 miles , 16 km
Cloud details: Mostly cloudy 700 ft
Overcast 1800 ft
2018/05/25 07:52 KATL 250752Z 08006KT 10SM BKN007 OVC018 22/19 A3006 RMK AO2 SLP170 CIG 005V009 BINOVC T02170194
KORL - Orlando, Florida
Updated: Fri, May-Fri-2018 2:53am
Clear
Clear
 Wind from ESE
Wind: ESE 3 mph , 6 km/h
Temperature: 73°F , 23°C
Dew Point: 73°F , 23°C
Humidity: 100%
Barometer: 30.02 inHg , 1016.6 hPa
Clouds: Clear
Visibility: 10 miles , 16 km
2018/05/25 07:53 KORL 250753Z AUTO 11003KT 10SM CLR 23/23 A3002 RMK AO2 SLP168 T02330228
KMSP - Minneapolis, Minnesota
Updated: Fri, May-Fri-2018 2:57am
Thunderstorm, Overcast
Thunderstorm, Overcast
 Wind from W
Wind: W 9 mph , 15 km/h
Temperature: 72°F , 22°C
Dew Point: 64°F , 18°C
Humidity: 78%
Barometer: 29.88 inHg , 1011.9 hPa
Summary: Thunderstorm
Clouds: Overcast
Visibility: 10 miles , 16 km
Cloud details: Overcast 5500 ft
2018/05/25 07:57 KMSP 250757Z 28008KT 10SM TS OVC055 22/18 A2988 RMK AO2 LTG DSNT ALQDS TSB57 T02220178
 
KORD - Chicago, Illinois
Updated: Fri, May-Fri-2018 2:51am
Clear
Clear
 Wind from S
Wind: S 7 mph , 11 km/h
Temperature: 70°F , 21°C
Dew Point: 52°F , 11°C
Humidity: 53%
Barometer: 29.99 inHg , 1015.6 hPa
Clouds: Clear
Visibility: 10 miles , 16 km
2018/05/25 07:51 KORD 250751Z 19006KT 10SM CLR 21/11 A2999 RMK AO2 SLP149 T02060106 $
KDFW - Dallas/Ft Worth, Texas
Updated: Fri, May-Fri-2018 2:53am
Few Clouds
Few Clouds
 Wind from S
Wind: S 12 mph , 19 km/h
Temperature: 79°F , 26°C
Dew Point: 70°F , 21°C
Humidity: 74%
Barometer: 29.96 inHg , 1014.6 hPa
Clouds: Few Clouds
Visibility: 10 miles , 16 km
Cloud details: Few Clouds 5000 ft
2018/05/25 07:53 KDFW 250753Z 18010KT 10SM FEW050 26/21 A2996 RMK AO2 SLP135 T02560206
KHOU - Houston, Texas
Updated: Fri, May-Fri-2018 2:53am
Few Clouds
Few Clouds
 Wind from calm
Wind: Calm
Temperature: 73°F , 23°C
Dew Point: 73°F , 23°C
Humidity: 100%
Barometer: 29.98 inHg , 1015.2 hPa
Clouds: Few Clouds
Visibility: 10 miles , 16 km
Cloud details: Few Clouds 1500 ft
Few Clouds 25000 ft
2018/05/25 07:53 KHOU 250753Z 00000KT 10SM FEW015 FEW250 23/23 A2998 RMK AO2 SLP157 T02280228
 
KDEN - Denver, Colorado
Updated: Fri, May-Fri-2018 2:53am
Clear
Clear
 Wind from S
Wind: S 12 mph , 19 km/h
Temperature: 55°F , 13°C
Dew Point: 39°F , 4°C
Humidity: 55%
Barometer: 30.11 inHg , 1019.6 hPa
Clouds: Clear
Visibility: 10 miles , 16 km
2018/05/25 07:53 KDEN 250753Z 18010KT 10SM CLR 13/04 A3011 RMK AO2 SLP123 T01280039
KSFO - San Francisco, California
Updated: Fri, May-Fri-2018 2:56am
Mostly cloudy
Mostly cloudy
 Wind from SW
Wind: SW 5 mph , 7 km/h
Temperature: 57°F , 14°C
Dew Point: 48°F , 9°C
Humidity: 72%
Barometer: 30.06 inHg , 1017.9 hPa
Clouds: Mostly cloudy
Visibility: 10 miles , 16 km
Cloud details: Few Clouds 1600 ft
Mostly cloudy 2600 ft
Mostly cloudy 3100 ft
2018/05/25 07:56 KSFO 250756Z 22004KT 10SM FEW016 BKN026 BKN031 14/09 A3006 RMK AO2 SLP180 T01390094 401780128
KLAX - Los Angeles, California
Updated: Fri, May-Fri-2018 2:53am
Overcast
Overcast
 Wind from W
Wind: W 14 mph , 22 km/h
Temperature: 61°F , 16°C
Dew Point: 52°F , 11°C
Humidity: 72%
Barometer: 30.10 inHg , 1019.3 hPa
Clouds: Overcast
Visibility: 10 miles , 16 km
Cloud details: Partly cloudy 2500 ft
Overcast 3400 ft
2018/05/25 07:53 KLAX 250753Z 27012KT 10SM SCT025 OVC034 16/11 A3010 RMK AO2 SLP191 T01560111 401890150